sensor_id;sensor_type;location;lat;lon;timestamp;P1;durP1;ratioP1;P2;durP2;ratioP2
76935;SDS011;65881;52.438;16.744;2023-03-17T00:00:07;17.23;;;8.93;;
76935;SDS011;65881;52.438;16.744;2023-03-17T00:02:34;16.40;;;9.55;;
76935;SDS011;65881;52.438;16.744;2023-03-17T00:05:01;14.13;;;8.75;;
76935;SDS011;65881;52.438;16.744;2023-03-17T00:07:34;18.33;;;10.75;;
76935;SDS011;65881;52.438;16.744;2023-03-17T00:10:00;15.82;;;8.63;;
76935;SDS011;65881;52.438;16.744;2023-03-17T00:12:26;19.23;;;9.30;;
76935;SDS011;65881;52.438;16.744;2023-03-17T00:14:52;19.23;;;9.88;;
76935;SDS011;65881;52.438;16.744;2023-03-17T00:17:17;22.17;;;10.93;;
76935;SDS011;65881;52.438;16.744;2023-03-17T00:19:43;17.83;;;9.68;;
76935;SDS011;65881;52.438;16.744;2023-03-17T00:22:14;18.77;;;10.00;;
76935;SDS011;65881;52.438;16.744;2023-03-17T00:24:42;19.63;;;9.93;;
76935;SDS011;65881;52.438;16.744;2023-03-17T00:27:11;18.25;;;9.50;;
76935;SDS011;65881;52.438;16.744;2023-03-17T00:29:38;18.75;;;11.07;;
76935;SDS011;65881;52.438;16.744;2023-03-17T00:32:05;15.30;;;9.20;;
76935;SDS011;65881;52.438;16.744;2023-03-17T00:34:39;19.73;;;8.60;;
76935;SDS011;65881;52.438;16.744;2023-03-17T00:37:07;16.15;;;10.52;;
76935;SDS011;65881;52.438;16.744;2023-03-17T00:39:35;17.30;;;9.55;;
76935;SDS011;65881;52.438;16.744;2023-03-17T00:42:01;21.17;;;11.23;;
76935;SDS011;65881;52.438;16.744;2023-03-17T00:44:27;16.58;;;10.07;;
76935;SDS011;65881;52.438;16.744;2023-03-17T00:46:53;16.42;;;9.10;;
76935;SDS011;65881;52.438;16.744;2023-03-17T00:49:20;18.50;;;9.70;;
76935;SDS011;65881;52.438;16.744;2023-03-17T00:51:47;24.58;;;11.35;;
76935;SDS011;65881;52.438;16.744;2023-03-17T00:54:14;18.80;;;10.23;;
76935;SDS011;65881;52.438;16.744;2023-03-17T00:56:40;18.20;;;9.48;;
76935;SDS011;65881;52.438;16.744;2023-03-17T00:59:36;17.27;;;9.95;;
76935;SDS011;65881;52.438;16.744;2023-03-17T01:02:02;19.13;;;10.60;;
76935;SDS011;65881;52.438;16.744;2023-03-17T01:04:28;19.02;;;10.70;;
76935;SDS011;65881;52.438;16.744;2023-03-17T01:06:54;19.27;;;9.65;;
76935;SDS011;65881;52.438;16.744;2023-03-17T01:09:20;18.60;;;10.98;;
76935;SDS011;65881;52.438;16.744;2023-03-17T01:11:49;19.35;;;11.13;;
76935;SDS011;65881;52.438;16.744;2023-03-17T01:14:15;22.52;;;11.45;;
76935;SDS011;65881;52.438;16.744;2023-03-17T01:16:41;28.45;;;13.50;;
76935;SDS011;65881;52.438;16.744;2023-03-17T01:19:09;21.10;;;12.18;;
76935;SDS011;65881;52.438;16.744;2023-03-17T01:21:36;27.30;;;12.15;;
76935;SDS011;65881;52.438;16.744;2023-03-17T01:24:01;25.17;;;13.30;;
76935;SDS011;65881;52.438;16.744;2023-03-17T01:26:28;28.42;;;13.32;;
76935;SDS011;65881;52.438;16.744;2023-03-17T01:28:54;23.02;;;12.20;;
76935;SDS011;65881;52.438;16.744;2023-03-17T01:31:20;24.48;;;13.43;;
76935;SDS011;65881;52.438;16.744;2023-03-17T01:33:46;24.50;;;14.75;;
76935;SDS011;65881;52.438;16.744;2023-03-17T01:36:12;28.38;;;13.40;;
76935;SDS011;65881;52.438;16.744;2023-03-17T01:38:39;25.90;;;13.30;;
76935;SDS011;65881;52.438;16.744;2023-03-17T01:41:06;22.05;;;13.13;;
76935;SDS011;65881;52.438;16.744;2023-03-17T01:43:32;27.05;;;14.45;;
76935;SDS011;65881;52.438;16.744;2023-03-17T01:46:16;22.33;;;13.27;;
76935;SDS011;65881;52.438;16.744;2023-03-17T01:54:09;29.48;;;15.00;;
76935;SDS011;65881;52.438;16.744;2023-03-17T01:56:40;30.45;;;15.57;;
76935;SDS011;65881;52.438;16.744;2023-03-17T01:59:10;25.40;;;15.40;;
76935;SDS011;65881;52.438;16.744;2023-03-17T02:01:43;28.63;;;16.15;;
76935;SDS011;65881;52.438;16.744;2023-03-17T02:04:11;26.63;;;16.38;;
76935;SDS011;65881;52.438;16.744;2023-03-17T02:06:37;30.40;;;15.55;;
76935;SDS011;65881;52.438;16.744;2023-03-17T02:09:04;24.20;;;15.45;;
76935;SDS011;65881;52.438;16.744;2023-03-17T02:11:29;22.70;;;14.80;;
76935;SDS011;65881;52.438;16.744;2023-03-17T02:13:57;26.77;;;14.77;;
76935;SDS011;65881;52.438;16.744;2023-03-17T02:16:22;25.48;;;15.82;;
76935;SDS011;65881;52.438;16.744;2023-03-17T02:18:49;31.05;;;16.15;;
76935;SDS011;65881;52.438;16.744;2023-03-17T02:21:36;28.30;;;13.95;;
76935;SDS011;65881;52.438;16.744;2023-03-17T02:24:09;29.73;;;14.68;;
76935;SDS011;65881;52.438;16.744;2023-03-17T02:26:46;30.55;;;16.48;;
76935;SDS011;65881;52.438;16.744;2023-03-17T02:29:13;27.40;;;15.02;;
76935;SDS011;65881;52.438;16.744;2023-03-17T02:31:40;27.05;;;13.30;;
76935;SDS011;65881;52.438;16.744;2023-03-17T02:34:07;30.90;;;15.43;;
76935;SDS011;65881;52.438;16.744;2023-03-17T02:36:33;36.50;;;17.20;;
76935;SDS011;65881;52.438;16.744;2023-03-17T02:38:59;26.92;;;15.05;;
76935;SDS011;65881;52.438;16.744;2023-03-17T02:41:25;29.02;;;14.88;;
76935;SDS011;65881;52.438;16.744;2023-03-17T02:43:51;24.38;;;15.10;;
76935;SDS011;65881;52.438;16.744;2023-03-17T02:46:17;26.77;;;15.57;;
76935;SDS011;65881;52.438;16.744;2023-03-17T02:48:46;27.17;;;15.85;;
76935;SDS011;65881;52.438;16.744;2023-03-17T02:51:13;25.55;;;15.68;;
76935;SDS011;65881;52.438;16.744;2023-03-17T02:53:39;25.13;;;14.88;;
76935;SDS011;65881;52.438;16.744;2023-03-17T02:56:05;31.50;;;15.32;;
76935;SDS011;65881;52.438;16.744;2023-03-17T02:58:31;34.45;;;16.05;;
76935;SDS011;65881;52.438;16.744;2023-03-17T03:00:57;31.52;;;16.65;;
76935;SDS011;65881;52.438;16.744;2023-03-17T03:03:22;24.83;;;16.13;;
76935;SDS011;65881;52.438;16.744;2023-03-17T03:05:48;23.77;;;15.13;;
76935;SDS011;65881;52.438;16.744;2023-03-17T03:08:14;32.53;;;16.80;;
76935;SDS011;65881;52.438;16.744;2023-03-17T03:10:41;30.98;;;17.23;;
76935;SDS011;65881;52.438;16.744;2023-03-17T03:13:07;27.63;;;14.35;;
76935;SDS011;65881;52.438;16.744;2023-03-17T03:15:32;27.60;;;14.85;;
76935;SDS011;65881;52.438;16.744;2023-03-17T03:17:58;20.20;;;12.90;;
76935;SDS011;65881;52.438;16.744;2023-03-17T03:20:24;27.15;;;14.35;;
76935;SDS011;65881;52.438;16.744;2023-03-17T03:22:50;22.95;;;14.95;;
76935;SDS011;65881;52.438;16.744;2023-03-17T03:25:16;28.48;;;14.85;;
76935;SDS011;65881;52.438;16.744;2023-03-17T03:27:42;27.10;;;15.82;;
76935;SDS011;65881;52.438;16.744;2023-03-17T03:30:08;23.63;;;13.45;;
76935;SDS011;65881;52.438;16.744;2023-03-17T03:32:34;27.38;;;13.82;;
76935;SDS011;65881;52.438;16.744;2023-03-17T03:35:00;26.95;;;15.93;;
76935;SDS011;65881;52.438;16.744;2023-03-17T03:37:25;28.13;;;15.93;;
76935;SDS011;65881;52.438;16.744;2023-03-17T03:39:51;32.22;;;15.52;;
76935;SDS011;65881;52.438;16.744;2023-03-17T03:42:17;24.58;;;12.55;;
76935;SDS011;65881;52.438;16.744;2023-03-17T03:44:43;26.23;;;14.85;;
76935;SDS011;65881;52.438;16.744;2023-03-17T03:47:08;22.40;;;12.85;;
76935;SDS011;65881;52.438;16.744;2023-03-17T03:49:34;25.08;;;13.93;;
76935;SDS011;65881;52.438;16.744;2023-03-17T03:52:00;21.10;;;12.10;;
76935;SDS011;65881;52.438;16.744;2023-03-17T03:54:25;22.00;;;13.35;;
76935;SDS011;65881;52.438;16.744;2023-03-17T03:56:51;27.25;;;12.63;;
76935;SDS011;65881;52.438;16.744;2023-03-17T03:59:17;23.27;;;13.57;;
76935;SDS011;65881;52.438;16.744;2023-03-17T04:01:42;22.05;;;14.15;;
76935;SDS011;65881;52.438;16.744;2023-03-17T04:04:08;26.58;;;13.45;;
76935;SDS011;65881;52.438;16.744;2023-03-17T04:06:34;24.42;;;13.40;;
76935;SDS011;65881;52.438;16.744;2023-03-17T04:08:59;22.17;;;13.20;;
76935;SDS011;65881;52.438;16.744;2023-03-17T04:11:26;28.92;;;14.90;;
76935;SDS011;65881;52.438;16.744;2023-03-17T04:13:52;22.60;;;13.70;;
76935;SDS011;65881;52.438;16.744;2023-03-17T04:16:17;24.65;;;12.95;;
76935;SDS011;65881;52.438;16.744;2023-03-17T04:18:43;23.45;;;12.88;;
76935;SDS011;65881;52.438;16.744;2023-03-17T04:21:09;28.55;;;14.55;;
76935;SDS011;65881;52.438;16.744;2023-03-17T04:23:36;23.90;;;14.60;;
76935;SDS011;65881;52.438;16.744;2023-03-17T04:26:02;24.80;;;12.80;;
76935;SDS011;65881;52.438;16.744;2023-03-17T04:28:28;22.23;;;12.30;;
76935;SDS011;65881;52.438;16.744;2023-03-17T04:30:54;20.52;;;11.57;;
76935;SDS011;65881;52.438;16.744;2023-03-17T04:33:20;19.20;;;11.63;;
76935;SDS011;65881;52.438;16.744;2023-03-17T04:35:46;20.40;;;12.00;;
76935;SDS011;65881;52.438;16.744;2023-03-17T04:38:12;25.25;;;13.50;;
76935;SDS011;65881;52.438;16.744;2023-03-17T04:40:38;21.70;;;12.27;;
76935;SDS011;65881;52.438;16.744;2023-03-17T04:43:03;24.92;;;13.93;;
76935;SDS011;65881;52.438;16.744;2023-03-17T04:45:30;21.50;;;11.82;;
76935;SDS011;65881;52.438;16.744;2023-03-17T04:47:56;24.38;;;13.95;;
76935;SDS011;65881;52.438;16.744;2023-03-17T04:50:22;20.88;;;11.30;;
76935;SDS011;65881;52.438;16.744;2023-03-17T04:52:48;21.90;;;12.88;;
76935;SDS011;65881;52.438;16.744;2023-03-17T04:55:13;23.98;;;11.10;;
76935;SDS011;65881;52.438;16.744;2023-03-17T04:57:39;24.38;;;12.95;;
76935;SDS011;65881;52.438;16.744;2023-03-17T05:00:05;22.02;;;12.13;;
76935;SDS011;65881;52.438;16.744;2023-03-17T05:02:34;20.92;;;12.25;;
76935;SDS011;65881;52.438;16.744;2023-03-17T05:04:59;24.65;;;13.52;;
76935;SDS011;65881;52.438;16.744;2023-03-17T05:07:26;18.52;;;11.63;;
76935;SDS011;65881;52.438;16.744;2023-03-17T05:09:51;21.75;;;11.00;;
76935;SDS011;65881;52.438;16.744;2023-03-17T05:12:17;23.90;;;11.15;;
76935;SDS011;65881;52.438;16.744;2023-03-17T05:14:43;22.85;;;11.20;;
76935;SDS011;65881;52.438;16.744;2023-03-17T05:17:08;20.45;;;12.13;;
76935;SDS011;65881;52.438;16.744;2023-03-17T05:19:34;23.52;;;13.07;;
76935;SDS011;65881;52.438;16.744;2023-03-17T05:22:00;29.30;;;12.60;;
76935;SDS011;65881;52.438;16.744;2023-03-17T05:24:26;22.50;;;11.90;;
76935;SDS011;65881;52.438;16.744;2023-03-17T05:26:51;22.23;;;13.00;;
76935;SDS011;65881;52.438;16.744;2023-03-17T05:29:17;18.65;;;11.05;;
76935;SDS011;65881;52.438;16.744;2023-03-17T05:31:43;23.75;;;11.93;;
76935;SDS011;65881;52.438;16.744;2023-03-17T05:34:09;24.27;;;10.75;;
76935;SDS011;65881;52.438;16.744;2023-03-17T05:36:35;17.45;;;11.65;;
76935;SDS011;65881;52.438;16.744;2023-03-17T05:39:01;18.27;;;10.25;;
76935;SDS011;65881;52.438;16.744;2023-03-17T05:41:28;18.42;;;10.52;;
76935;SDS011;65881;52.438;16.744;2023-03-17T05:43:53;20.27;;;11.95;;
76935;SDS011;65881;52.438;16.744;2023-03-17T05:46:20;22.60;;;10.90;;
76935;SDS011;65881;52.438;16.744;2023-03-17T05:48:46;19.55;;;10.02;;
76935;SDS011;65881;52.438;16.744;2023-03-17T05:51:14;22.13;;;10.88;;
76935;SDS011;65881;52.438;16.744;2023-03-17T05:53:40;27.50;;;11.80;;
76935;SDS011;65881;52.438;16.744;2023-03-17T05:56:06;23.48;;;12.63;;
76935;SDS011;65881;52.438;16.744;2023-03-17T05:58:33;21.85;;;12.45;;
76935;SDS011;65881;52.438;16.744;2023-03-17T06:00:59;20.40;;;11.77;;
76935;SDS011;65881;52.438;16.744;2023-03-17T06:03:25;23.10;;;12.40;;
76935;SDS011;65881;52.438;16.744;2023-03-17T06:05:51;23.27;;;13.00;;
76935;SDS011;65881;52.438;16.744;2023-03-17T06:08:17;19.20;;;11.95;;
76935;SDS011;65881;52.438;16.744;2023-03-17T06:10:43;18.92;;;11.18;;
76935;SDS011;65881;52.438;16.744;2023-03-17T06:13:09;21.00;;;12.05;;
76935;SDS011;65881;52.438;16.744;2023-03-17T06:15:35;18.40;;;10.43;;
76935;SDS011;65881;52.438;16.744;2023-03-17T06:18:02;22.60;;;12.60;;
76935;SDS011;65881;52.438;16.744;2023-03-17T06:20:29;25.38;;;11.35;;
76935;SDS011;65881;52.438;16.744;2023-03-17T06:22:56;16.98;;;11.73;;
76935;SDS011;65881;52.438;16.744;2023-03-17T06:25:22;25.05;;;13.18;;
76935;SDS011;65881;52.438;16.744;2023-03-17T06:27:57;21.50;;;11.70;;
76935;SDS011;65881;52.438;16.744;2023-03-17T06:30:29;20.83;;;11.60;;
76935;SDS011;65881;52.438;16.744;2023-03-17T06:32:59;21.15;;;12.13;;
76935;SDS011;65881;52.438;16.744;2023-03-17T06:35:37;19.25;;;11.98;;
76935;SDS011;65881;52.438;16.744;2023-03-17T06:38:03;21.55;;;11.57;;
76935;SDS011;65881;52.438;16.744;2023-03-17T06:40:29;21.05;;;11.77;;
76935;SDS011;65881;52.438;16.744;2023-03-17T06:42:56;23.20;;;10.85;;
76935;SDS011;65881;52.438;16.744;2023-03-17T06:45:22;23.55;;;12.32;;
76935;SDS011;65881;52.438;16.744;2023-03-17T06:47:48;25.10;;;12.20;;
76935;SDS011;65881;52.438;16.744;2023-03-17T06:50:14;19.02;;;11.57;;
76935;SDS011;65881;52.438;16.744;2023-03-17T06:52:40;23.63;;;12.00;;
76935;SDS011;65881;52.438;16.744;2023-03-17T06:55:06;18.48;;;11.45;;
76935;SDS011;65881;52.438;16.744;2023-03-17T06:57:32;19.88;;;10.10;;
76935;SDS011;65881;52.438;16.744;2023-03-17T06:59:58;23.75;;;11.05;;
76935;SDS011;65881;52.438;16.744;2023-03-17T07:02:25;17.88;;;11.40;;
76935;SDS011;65881;52.438;16.744;2023-03-17T07:04:54;25.05;;;12.45;;
76935;SDS011;65881;52.438;16.744;2023-03-17T07:07:22;16.90;;;10.27;;
76935;SDS011;65881;52.438;16.744;2023-03-17T07:09:51;21.92;;;11.52;;
76935;SDS011;65881;52.438;16.744;2023-03-17T07:12:29;26.33;;;12.48;;
76935;SDS011;65881;52.438;16.744;2023-03-17T07:14:57;17.52;;;11.52;;
76935;SDS011;65881;52.438;16.744;2023-03-17T07:17:26;18.45;;;11.68;;
76935;SDS011;65881;52.438;16.744;2023-03-17T07:19:55;21.17;;;10.98;;
76935;SDS011;65881;52.438;16.744;2023-03-17T07:22:33;22.23;;;11.38;;
76935;SDS011;65881;52.438;16.744;2023-03-17T07:24:59;25.25;;;10.90;;
76935;SDS011;65881;52.438;16.744;2023-03-17T07:27:36;18.02;;;11.32;;
76935;SDS011;65881;52.438;16.744;2023-03-17T07:30:23;19.80;;;11.10;;
76935;SDS011;65881;52.438;16.744;2023-03-17T07:32:57;19.70;;;11.27;;
76935;SDS011;65881;52.438;16.744;2023-03-17T07:35:43;23.33;;;12.35;;
76935;SDS011;65881;52.438;16.744;2023-03-17T07:38:12;20.15;;;11.15;;
76935;SDS011;65881;52.438;16.744;2023-03-17T07:40:42;21.08;;;10.63;;
76935;SDS011;65881;52.438;16.744;2023-03-17T07:43:20;17.67;;;10.98;;
76935;SDS011;65881;52.438;16.744;2023-03-17T07:48:54;21.88;;;11.25;;
76935;SDS011;65881;52.438;16.744;2023-03-17T07:51:34;18.95;;;11.43;;
76935;SDS011;65881;52.438;16.744;2023-03-17T07:54:35;24.38;;;11.73;;
76935;SDS011;65881;52.438;16.744;2023-03-17T08:02:35;17.20;;;10.50;;
76935;SDS011;65881;52.438;16.744;2023-03-17T08:05:02;15.20;;;9.07;;
76935;SDS011;65881;52.438;16.744;2023-03-17T08:07:48;18.70;;;9.13;;
76935;SDS011;65881;52.438;16.744;2023-03-17T08:10:25;16.00;;;9.73;;
76935;SDS011;65881;52.438;16.744;2023-03-17T08:12:53;16.38;;;7.78;;
76935;SDS011;65881;52.438;16.744;2023-03-17T08:15:42;15.45;;;9.80;;
76935;SDS011;65881;52.438;16.744;2023-03-17T08:18:14;17.85;;;9.18;;
76935;SDS011;65881;52.438;16.744;2023-03-17T08:20:40;17.05;;;9.40;;
76935;SDS011;65881;52.438;16.744;2023-03-17T08:26:01;15.68;;;10.35;;
76935;SDS011;65881;52.438;16.744;2023-03-17T08:31:21;12.82;;;9.20;;
76935;SDS011;65881;52.438;16.744;2023-03-17T08:33:52;15.27;;;8.43;;
76935;SDS011;65881;52.438;16.744;2023-03-17T08:37:08;15.93;;;9.20;;
76935;SDS011;65881;52.438;16.744;2023-03-17T08:39:50;14.00;;;7.97;;
76935;SDS011;65881;52.438;16.744;2023-03-17T08:42:18;20.38;;;9.93;;
76935;SDS011;65881;52.438;16.744;2023-03-17T08:44:44;21.05;;;8.70;;
76935;SDS011;65881;52.438;16.744;2023-03-17T08:47:10;18.23;;;8.73;;
76935;SDS011;65881;52.438;16.744;2023-03-17T08:52:51;13.55;;;7.43;;
76935;SDS011;65881;52.438;16.744;2023-03-17T08:55:38;13.13;;;8.02;;
76935;SDS011;65881;52.438;16.744;2023-03-17T08:58:04;10.27;;;6.28;;
76935;SDS011;65881;52.438;16.744;2023-03-17T09:00:30;13.88;;;6.90;;
76935;SDS011;65881;52.438;16.744;2023-03-17T09:03:17;11.35;;;7.28;;
76935;SDS011;65881;52.438;16.744;2023-03-17T09:05:44;12.15;;;7.78;;
76935;SDS011;65881;52.438;16.744;2023-03-17T09:08:11;12.85;;;7.43;;
76935;SDS011;65881;52.438;16.744;2023-03-17T09:10:44;12.18;;;7.22;;
76935;SDS011;65881;52.438;16.744;2023-03-17T09:13:20;13.02;;;6.88;;
76935;SDS011;65881;52.438;16.744;2023-03-17T09:15:51;13.00;;;6.43;;
76935;SDS011;65881;52.438;16.744;2023-03-17T09:18:25;11.48;;;5.75;;
76935;SDS011;65881;52.438;16.744;2023-03-17T09:21:24;7.80;;;5.20;;
76935;SDS011;65881;52.438;16.744;2023-03-17T09:23:54;13.93;;;7.13;;
76935;SDS011;65881;52.438;16.744;2023-03-17T09:26:20;12.55;;;6.38;;
76935;SDS011;65881;52.438;16.744;2023-03-17T09:28:51;11.63;;;6.88;;
76935;SDS011;65881;52.438;16.744;2023-03-17T09:34:18;15.20;;;7.13;;
76935;SDS011;65881;52.438;16.744;2023-03-17T09:39:45;9.93;;;8.02;;
76935;SDS011;65881;52.438;16.744;2023-03-17T09:42:15;11.57;;;7.05;;
76935;SDS011;65881;52.438;16.744;2023-03-17T09:54:02;12.70;;;6.40;;
76935;SDS011;65881;52.438;16.744;2023-03-17T09:56:31;12.60;;;6.43;;
76935;SDS011;65881;52.438;16.744;2023-03-17T09:59:06;13.45;;;7.20;;
76935;SDS011;65881;52.438;16.744;2023-03-17T10:05:09;12.45;;;7.85;;
76935;SDS011;65881;52.438;16.744;2023-03-17T10:19:25;11.82;;;7.40;;
76935;SDS011;65881;52.438;16.744;2023-03-17T10:22:07;14.85;;;8.13;;
76935;SDS011;65881;52.438;16.744;2023-03-17T10:25:27;12.30;;;6.28;;
76935;SDS011;65881;52.438;16.744;2023-03-17T10:30:54;11.63;;;6.07;;
76935;SDS011;65881;52.438;16.744;2023-03-17T10:33:42;10.27;;;6.65;;
76935;SDS011;65881;52.438;16.744;2023-03-17T10:36:13;12.13;;;6.93;;
76935;SDS011;65881;52.438;16.744;2023-03-17T10:39:04;16.90;;;8.18;;
76935;SDS011;65881;52.438;16.744;2023-03-17T10:41:40;11.35;;;7.75;;
76935;SDS011;65881;52.438;16.744;2023-03-17T10:44:37;10.68;;;7.40;;
76935;SDS011;65881;52.438;16.744;2023-03-17T10:52:41;16.95;;;8.07;;
76935;SDS011;65881;52.438;16.744;2023-03-17T10:55:13;12.05;;;8.05;;
76935;SDS011;65881;52.438;16.744;2023-03-17T10:58:17;13.40;;;7.88;;
76935;SDS011;65881;52.438;16.744;2023-03-17T11:01:13;10.68;;;7.20;;
76935;SDS011;65881;52.438;16.744;2023-03-17T11:03:40;10.85;;;7.20;;
76935;SDS011;65881;52.438;16.744;2023-03-17T11:06:07;8.98;;;6.57;;
76935;SDS011;65881;52.438;16.744;2023-03-17T11:08:56;14.63;;;8.27;;
76935;SDS011;65881;52.438;16.744;2023-03-17T11:11:46;13.80;;;8.98;;
76935;SDS011;65881;52.438;16.744;2023-03-17T11:14:19;14.48;;;8.73;;
76935;SDS011;65881;52.438;16.744;2023-03-17T11:26:05;16.60;;;7.82;;
76935;SDS011;65881;52.438;16.744;2023-03-17T11:28:39;12.05;;;7.75;;
76935;SDS011;65881;52.438;16.744;2023-03-17T11:31:23;17.38;;;8.38;;
76935;SDS011;65881;52.438;16.744;2023-03-17T11:34:14;12.98;;;8.25;;
76935;SDS011;65881;52.438;16.744;2023-03-17T11:46:26;10.10;;;6.68;;
76935;SDS011;65881;52.438;16.744;2023-03-17T11:52:31;14.70;;;7.22;;
76935;SDS011;65881;52.438;16.744;2023-03-17T11:58:04;14.25;;;6.55;;
76935;SDS011;65881;52.438;16.744;2023-03-17T12:00:43;12.32;;;7.32;;
76935;SDS011;65881;52.438;16.744;2023-03-17T12:12:18;12.27;;;7.97;;
76935;SDS011;65881;52.438;16.744;2023-03-17T12:14:51;13.30;;;7.95;;
76935;SDS011;65881;52.438;16.744;2023-03-17T12:17:38;12.75;;;7.45;;
76935;SDS011;65881;52.438;16.744;2023-03-17T12:20:25;10.68;;;7.40;;
76935;SDS011;65881;52.438;16.744;2023-03-17T12:23:27;14.30;;;7.82;;
76935;SDS011;65881;52.438;16.744;2023-03-17T12:26:19;16.15;;;8.65;;
76935;SDS011;65881;52.438;16.744;2023-03-17T12:32:19;14.43;;;7.60;;
76935;SDS011;65881;52.438;16.744;2023-03-17T12:42:10;14.50;;;7.43;;
76935;SDS011;65881;52.438;16.744;2023-03-17T12:47:59;16.42;;;9.82;;
76935;SDS011;65881;52.438;16.744;2023-03-17T12:54:33;11.57;;;7.63;;
76935;SDS011;65881;52.438;16.744;2023-03-17T12:57:28;15.38;;;7.70;;
76935;SDS011;65881;52.438;16.744;2023-03-17T13:00:30;18.00;;;9.02;;
76935;SDS011;65881;52.438;16.744;2023-03-17T13:03:21;12.27;;;8.82;;
76935;SDS011;65881;52.438;16.744;2023-03-17T13:06:04;15.23;;;8.95;;
76935;SDS011;65881;52.438;16.744;2023-03-17T13:08:40;11.90;;;7.55;;
76935;SDS011;65881;52.438;16.744;2023-03-17T13:21:24;14.02;;;8.40;;
76935;SDS011;65881;52.438;16.744;2023-03-17T13:23:53;14.40;;;8.60;;
76935;SDS011;65881;52.438;16.744;2023-03-17T13:27:43;14.98;;;9.30;;
76935;SDS011;65881;52.438;16.744;2023-03-17T13:29:59;14.50;;;8.77;;
76935;SDS011;65881;52.438;16.744;2023-03-17T13:33:00;13.38;;;8.45;;
76935;SDS011;65881;52.438;16.744;2023-03-17T13:47:26;10.82;;;7.88;;
76935;SDS011;65881;52.438;16.744;2023-03-17T13:53:08;11.05;;;7.95;;
76935;SDS011;65881;52.438;16.744;2023-03-17T14:11:59;11.57;;;6.90;;
76935;SDS011;65881;52.438;16.744;2023-03-17T14:14:45;11.00;;;5.82;;
76935;SDS011;65881;52.438;16.744;2023-03-17T14:17:31;7.50;;;6.07;;
76935;SDS011;65881;52.438;16.744;2023-03-17T14:20:35;11.20;;;6.88;;
76935;SDS011;65881;52.438;16.744;2023-03-17T14:23:01;11.32;;;6.10;;
76935;SDS011;65881;52.438;16.744;2023-03-17T14:25:37;13.02;;;6.95;;
76935;SDS011;65881;52.438;16.744;2023-03-17T14:28:07;8.90;;;6.30;;
76935;SDS011;65881;52.438;16.744;2023-03-17T14:30:47;14.43;;;6.70;;
76935;SDS011;65881;52.438;16.744;2023-03-17T14:33:27;11.35;;;6.15;;
76935;SDS011;65881;52.438;16.744;2023-03-17T14:35:59;12.63;;;8.13;;
76935;SDS011;65881;52.438;16.744;2023-03-17T14:38:31;11.90;;;7.57;;
76935;SDS011;65881;52.438;16.744;2023-03-17T14:41:14;12.15;;;7.07;;
76935;SDS011;65881;52.438;16.744;2023-03-17T14:43:47;9.25;;;6.82;;
76935;SDS011;65881;52.438;16.744;2023-03-17T14:46:22;10.13;;;6.45;;
76935;SDS011;65881;52.438;16.744;2023-03-17T14:51:27;6.72;;;4.85;;
76935;SDS011;65881;52.438;16.744;2023-03-17T14:56:26;8.27;;;5.80;;
76935;SDS011;65881;52.438;16.744;2023-03-17T14:59:17;8.27;;;6.18;;
76935;SDS011;65881;52.438;16.744;2023-03-17T15:01:45;13.40;;;6.65;;
76935;SDS011;65881;52.438;16.744;2023-03-17T15:04:20;8.88;;;6.60;;
76935;SDS011;65881;52.438;16.744;2023-03-17T15:07:02;9.95;;;5.75;;
76935;SDS011;65881;52.438;16.744;2023-03-17T15:12:04;11.25;;;6.15;;
76935;SDS011;65881;52.438;16.744;2023-03-17T15:14:42;8.70;;;6.35;;
76935;SDS011;65881;52.438;16.744;2023-03-17T15:17:20;9.85;;;6.15;;
76935;SDS011;65881;52.438;16.744;2023-03-17T15:19:54;11.68;;;7.13;;
76935;SDS011;65881;52.438;16.744;2023-03-17T15:27:40;9.60;;;6.97;;
76935;SDS011;65881;52.438;16.744;2023-03-17T15:30:06;12.23;;;7.43;;
76935;SDS011;65881;52.438;16.744;2023-03-17T15:32:33;10.73;;;7.32;;
76935;SDS011;65881;52.438;16.744;2023-03-17T15:34:58;11.15;;;8.45;;
76935;SDS011;65881;52.438;16.744;2023-03-17T15:37:26;10.57;;;8.15;;
76935;SDS011;65881;52.438;16.744;2023-03-17T15:39:54;15.95;;;7.78;;
76935;SDS011;65881;52.438;16.744;2023-03-17T15:42:22;16.52;;;8.68;;
76935;SDS011;65881;52.438;16.744;2023-03-17T15:44:55;15.80;;;8.90;;
76935;SDS011;65881;52.438;16.744;2023-03-17T15:47:22;16.92;;;8.50;;
76935;SDS011;65881;52.438;16.744;2023-03-17T15:49:54;15.02;;;8.30;;
76935;SDS011;65881;52.438;16.744;2023-03-17T15:52:30;12.85;;;8.23;;
76935;SDS011;65881;52.438;16.744;2023-03-17T15:54:56;12.13;;;8.02;;
76935;SDS011;65881;52.438;16.744;2023-03-17T15:57:23;14.98;;;8.45;;
76935;SDS011;65881;52.438;16.744;2023-03-17T15:59:50;12.82;;;7.55;;
76935;SDS011;65881;52.438;16.744;2023-03-17T16:02:24;14.23;;;8.00;;
76935;SDS011;65881;52.438;16.744;2023-03-17T16:04:56;11.98;;;7.97;;
76935;SDS011;65881;52.438;16.744;2023-03-17T16:07:23;12.88;;;8.13;;
76935;SDS011;65881;52.438;16.744;2023-03-17T16:09:50;11.75;;;9.25;;
76935;SDS011;65881;52.438;16.744;2023-03-17T16:12:15;17.58;;;8.57;;
76935;SDS011;65881;52.438;16.744;2023-03-17T16:14:42;14.05;;;8.93;;
76935;SDS011;65881;52.438;16.744;2023-03-17T16:17:14;16.70;;;8.90;;
76935;SDS011;65881;52.438;16.744;2023-03-17T16:19:46;11.50;;;7.13;;
76935;SDS011;65881;52.438;16.744;2023-03-17T16:22:56;11.90;;;8.55;;
76935;SDS011;65881;52.438;16.744;2023-03-17T16:25:15;13.55;;;9.02;;
76935;SDS011;65881;52.438;16.744;2023-03-17T16:27:42;11.95;;;6.95;;
76935;SDS011;65881;52.438;16.744;2023-03-17T16:30:13;11.45;;;7.25;;
76935;SDS011;65881;52.438;16.744;2023-03-17T16:32:40;16.77;;;9.05;;
76935;SDS011;65881;52.438;16.744;2023-03-17T16:35:16;20.58;;;9.82;;
76935;SDS011;65881;52.438;16.744;2023-03-17T16:37:44;17.73;;;8.88;;
76935;SDS011;65881;52.438;16.744;2023-03-17T16:40:17;14.80;;;8.63;;
76935;SDS011;65881;52.438;16.744;2023-03-17T16:42:48;14.40;;;9.00;;
76935;SDS011;65881;52.438;16.744;2023-03-17T16:45:24;13.38;;;7.65;;
76935;SDS011;65881;52.438;16.744;2023-03-17T16:47:52;14.13;;;8.57;;
76935;SDS011;65881;52.438;16.744;2023-03-17T16:50:20;16.63;;;8.25;;
76935;SDS011;65881;52.438;16.744;2023-03-17T16:52:47;13.57;;;9.48;;
76935;SDS011;65881;52.438;16.744;2023-03-17T16:55:13;14.73;;;9.05;;
76935;SDS011;65881;52.438;16.744;2023-03-17T16:57:49;17.67;;;8.88;;
76935;SDS011;65881;52.438;16.744;2023-03-17T17:00:27;14.55;;;8.98;;
76935;SDS011;65881;52.438;16.744;2023-03-17T17:02:54;13.07;;;8.23;;
76935;SDS011;65881;52.438;16.744;2023-03-17T17:05:25;16.48;;;8.20;;
76935;SDS011;65881;52.438;16.744;2023-03-17T17:07:54;15.77;;;7.25;;
76935;SDS011;65881;52.438;16.744;2023-03-17T17:10:21;12.82;;;8.57;;
76935;SDS011;65881;52.438;16.744;2023-03-17T17:12:50;11.18;;;7.82;;
76935;SDS011;65881;52.438;16.744;2023-03-17T17:15:17;15.77;;;8.93;;
76935;SDS011;65881;52.438;16.744;2023-03-17T17:17:46;15.88;;;10.10;;
76935;SDS011;65881;52.438;16.744;2023-03-17T17:20:17;15.63;;;9.88;;
76935;SDS011;65881;52.438;16.744;2023-03-17T17:22:56;12.77;;;8.30;;
76935;SDS011;65881;52.438;16.744;2023-03-17T17:25:23;12.60;;;8.63;;
76935;SDS011;65881;52.438;16.744;2023-03-17T17:27:49;15.95;;;10.02;;